sensor_id;sensor_type;location;lat;lon;timestamp;P1;durP1;ratioP1;P2;durP2;ratioP2
84687;SDS011;74908;42.040;21.322;2024-03-22T00:02:16;8.13;;;4.80;;
84687;SDS011;74908;42.040;21.322;2024-03-22T00:04:42;7.97;;;3.92;;
84687;SDS011;74908;42.040;21.322;2024-03-22T00:07:08;7.32;;;4.22;;
84687;SDS011;74908;42.040;21.322;2024-03-22T00:09:35;10.15;;;5.35;;
84687;SDS011;74908;42.040;21.322;2024-03-22T00:12:01;9.25;;;4.43;;
84687;SDS011;74908;42.040;21.322;2024-03-22T00:14:28;6.65;;;4.10;;
84687;SDS011;74908;42.040;21.322;2024-03-22T00:16:54;10.15;;;4.90;;
84687;SDS011;74908;42.040;21.322;2024-03-22T00:19:20;5.35;;;3.50;;
84687;SDS011;74908;42.040;21.322;2024-03-22T00:21:46;8.70;;;5.20;;
84687;SDS011;74908;42.040;21.322;2024-03-22T00:24:13;10.00;;;4.15;;
84687;SDS011;74908;42.040;21.322;2024-03-22T00:26:39;12.50;;;6.03;;
84687;SDS011;74908;42.040;21.322;2024-03-22T00:29:05;7.05;;;3.65;;
84687;SDS011;74908;42.040;21.322;2024-03-22T00:31:32;7.95;;;4.25;;
84687;SDS011;74908;42.040;21.322;2024-03-22T00:33:58;9.55;;;4.03;;
84687;SDS011;74908;42.040;21.322;2024-03-22T00:36:25;9.38;;;4.60;;
84687;SDS011;74908;42.040;21.322;2024-03-22T00:38:59;7.97;;;4.22;;
84687;SDS011;74908;42.040;21.322;2024-03-22T00:41:25;8.82;;;4.40;;
84687;SDS011;74908;42.040;21.322;2024-03-22T00:43:51;7.88;;;4.35;;
84687;SDS011;74908;42.040;21.322;2024-03-22T00:46:17;8.48;;;4.57;;
84687;SDS011;74908;42.040;21.322;2024-03-22T00:48:44;8.38;;;4.20;;
84687;SDS011;74908;42.040;21.322;2024-03-22T00:51:10;4.95;;;3.47;;
84687;SDS011;74908;42.040;21.322;2024-03-22T00:53:36;9.70;;;5.00;;
84687;SDS011;74908;42.040;21.322;2024-03-22T00:56:03;9.18;;;4.70;;
84687;SDS011;74908;42.040;21.322;2024-03-22T00:58:29;7.10;;;4.30;;
84687;SDS011;74908;42.040;21.322;2024-03-22T01:00:55;8.98;;;4.93;;
84687;SDS011;74908;42.040;21.322;2024-03-22T01:03:22;9.65;;;4.35;;
84687;SDS011;74908;42.040;21.322;2024-03-22T01:05:48;7.65;;;4.75;;
84687;SDS011;74908;42.040;21.322;2024-03-22T01:08:19;7.97;;;4.07;;
84687;SDS011;74908;42.040;21.322;2024-03-22T01:10:45;7.47;;;4.15;;
84687;SDS011;74908;42.040;21.322;2024-03-22T01:13:11;8.68;;;4.22;;
84687;SDS011;74908;42.040;21.322;2024-03-22T01:15:38;7.20;;;4.55;;
84687;SDS011;74908;42.040;21.322;2024-03-22T01:18:04;9.98;;;5.00;;
84687;SDS011;74908;42.040;21.322;2024-03-22T01:20:31;9.85;;;4.55;;
84687;SDS011;74908;42.040;21.322;2024-03-22T01:22:58;12.32;;;5.28;;
84687;SDS011;74908;42.040;21.322;2024-03-22T01:25:25;8.48;;;4.50;;
84687;SDS011;74908;42.040;21.322;2024-03-22T01:27:51;8.73;;;4.75;;
84687;SDS011;74908;42.040;21.322;2024-03-22T01:30:17;10.10;;;5.95;;
84687;SDS011;74908;42.040;21.322;2024-03-22T01:32:44;5.85;;;4.60;;
84687;SDS011;74908;42.040;21.322;2024-03-22T01:35:10;9.98;;;4.60;;
84687;SDS011;74908;42.040;21.322;2024-03-22T01:37:36;10.93;;;4.90;;
84687;SDS011;74908;42.040;21.322;2024-03-22T01:40:03;11.23;;;5.10;;
84687;SDS011;74908;42.040;21.322;2024-03-22T01:42:30;12.90;;;5.25;;
84687;SDS011;74908;42.040;21.322;2024-03-22T01:44:56;7.60;;;4.70;;
84687;SDS011;74908;42.040;21.322;2024-03-22T01:47:22;7.88;;;5.13;;
84687;SDS011;74908;42.040;21.322;2024-03-22T01:49:49;11.65;;;4.35;;
84687;SDS011;74908;42.040;21.322;2024-03-22T01:52:16;12.43;;;5.10;;
84687;SDS011;74908;42.040;21.322;2024-03-22T01:54:43;11.60;;;5.15;;
84687;SDS011;74908;42.040;21.322;2024-03-22T01:57:09;6.93;;;4.32;;
84687;SDS011;74908;42.040;21.322;2024-03-22T01:59:35;8.75;;;4.78;;
84687;SDS011;74908;42.040;21.322;2024-03-22T02:02:01;8.85;;;4.18;;
84687;SDS011;74908;42.040;21.322;2024-03-22T02:04:28;6.88;;;4.25;;
84687;SDS011;74908;42.040;21.322;2024-03-22T02:06:54;9.60;;;4.68;;
84687;SDS011;74908;42.040;21.322;2024-03-22T02:09:20;7.43;;;4.65;;
84687;SDS011;74908;42.040;21.322;2024-03-22T02:11:47;9.07;;;4.88;;
84687;SDS011;74908;42.040;21.322;2024-03-22T02:14:13;14.45;;;4.97;;
84687;SDS011;74908;42.040;21.322;2024-03-22T02:16:40;7.25;;;4.72;;
84687;SDS011;74908;42.040;21.322;2024-03-22T02:19:06;9.38;;;4.60;;
84687;SDS011;74908;42.040;21.322;2024-03-22T02:21:33;8.30;;;4.78;;
84687;SDS011;74908;42.040;21.322;2024-03-22T02:23:59;7.78;;;4.43;;
84687;SDS011;74908;42.040;21.322;2024-03-22T02:26:25;4.93;;;3.42;;
84687;SDS011;74908;42.040;21.322;2024-03-22T02:28:51;9.43;;;4.55;;
84687;SDS011;74908;42.040;21.322;2024-03-22T02:31:18;7.65;;;3.85;;
84687;SDS011;74908;42.040;21.322;2024-03-22T02:33:45;10.15;;;4.68;;
84687;SDS011;74908;42.040;21.322;2024-03-22T02:36:11;9.20;;;4.15;;
84687;SDS011;74908;42.040;21.322;2024-03-22T02:38:38;10.25;;;4.15;;
84687;SDS011;74908;42.040;21.322;2024-03-22T02:41:04;8.55;;;4.00;;
84687;SDS011;74908;42.040;21.322;2024-03-22T02:43:30;9.38;;;4.35;;
84687;SDS011;74908;42.040;21.322;2024-03-22T02:45:56;12.25;;;4.13;;
84687;SDS011;74908;42.040;21.322;2024-03-22T02:48:23;9.32;;;4.28;;
84687;SDS011;74908;42.040;21.322;2024-03-22T02:50:49;6.75;;;4.57;;
84687;SDS011;74908;42.040;21.322;2024-03-22T02:53:15;8.05;;;4.35;;
84687;SDS011;74908;42.040;21.322;2024-03-22T02:55:41;5.88;;;3.22;;
84687;SDS011;74908;42.040;21.322;2024-03-22T02:58:09;8.57;;;4.20;;
84687;SDS011;74908;42.040;21.322;2024-03-22T03:00:38;12.25;;;4.55;;
84687;SDS011;74908;42.040;21.322;2024-03-22T03:03:05;8.60;;;4.93;;
84687;SDS011;74908;42.040;21.322;2024-03-22T03:05:31;9.82;;;4.32;;
84687;SDS011;74908;42.040;21.322;2024-03-22T03:07:57;9.57;;;4.80;;
84687;SDS011;74908;42.040;21.322;2024-03-22T03:10:24;12.25;;;3.92;;
84687;SDS011;74908;42.040;21.322;2024-03-22T03:12:50;5.05;;;3.28;;
84687;SDS011;74908;42.040;21.322;2024-03-22T03:15:17;9.15;;;4.28;;
84687;SDS011;74908;42.040;21.322;2024-03-22T03:17:43;5.85;;;3.22;;
84687;SDS011;74908;42.040;21.322;2024-03-22T03:20:09;9.18;;;4.28;;
84687;SDS011;74908;42.040;21.322;2024-03-22T03:22:41;9.50;;;4.72;;
84687;SDS011;74908;42.040;21.322;2024-03-22T03:25:08;10.30;;;4.18;;
84687;SDS011;74908;42.040;21.322;2024-03-22T03:27:34;7.63;;;4.05;;
84687;SDS011;74908;42.040;21.322;2024-03-22T03:30:01;10.45;;;4.78;;
84687;SDS011;74908;42.040;21.322;2024-03-22T03:32:28;11.85;;;3.83;;
84687;SDS011;74908;42.040;21.322;2024-03-22T03:34:54;10.38;;;4.80;;
84687;SDS011;74908;42.040;21.322;2024-03-22T03:37:20;14.35;;;4.32;;
84687;SDS011;74908;42.040;21.322;2024-03-22T03:39:46;9.85;;;4.53;;
84687;SDS011;74908;42.040;21.322;2024-03-22T03:42:12;10.15;;;3.60;;
84687;SDS011;74908;42.040;21.322;2024-03-22T03:44:39;7.63;;;4.57;;
84687;SDS011;74908;42.040;21.322;2024-03-22T03:47:06;10.73;;;4.90;;
84687;SDS011;74908;42.040;21.322;2024-03-22T03:49:32;9.25;;;4.70;;
84687;SDS011;74908;42.040;21.322;2024-03-22T03:51:58;9.40;;;4.20;;
84687;SDS011;74908;42.040;21.322;2024-03-22T03:54:25;8.57;;;4.47;;
84687;SDS011;74908;42.040;21.322;2024-03-22T03:56:51;8.20;;;4.40;;
84687;SDS011;74908;42.040;21.322;2024-03-22T03:59:17;11.38;;;4.68;;
84687;SDS011;74908;42.040;21.322;2024-03-22T04:01:43;8.73;;;4.68;;
84687;SDS011;74908;42.040;21.322;2024-03-22T04:04:09;8.65;;;4.60;;
84687;SDS011;74908;42.040;21.322;2024-03-22T04:06:35;10.50;;;4.30;;
84687;SDS011;74908;42.040;21.322;2024-03-22T04:09:01;8.50;;;4.85;;
84687;SDS011;74908;42.040;21.322;2024-03-22T04:11:28;12.35;;;4.82;;
84687;SDS011;74908;42.040;21.322;2024-03-22T04:13:54;11.20;;;4.57;;
84687;SDS011;74908;42.040;21.322;2024-03-22T04:16:20;12.25;;;4.95;;
84687;SDS011;74908;42.040;21.322;2024-03-22T04:18:46;10.20;;;4.90;;
84687;SDS011;74908;42.040;21.322;2024-03-22T04:21:12;7.45;;;3.95;;
84687;SDS011;74908;42.040;21.322;2024-03-22T04:23:39;7.32;;;4.20;;
84687;SDS011;74908;42.040;21.322;2024-03-22T04:26:05;6.00;;;3.83;;
84687;SDS011;74908;42.040;21.322;2024-03-22T04:28:31;14.05;;;4.30;;
84687;SDS011;74908;42.040;21.322;2024-03-22T04:31:00;7.55;;;3.75;;
84687;SDS011;74908;42.040;21.322;2024-03-22T04:33:28;8.25;;;4.20;;
84687;SDS011;74908;42.040;21.322;2024-03-22T04:35:54;8.02;;;4.38;;
84687;SDS011;74908;42.040;21.322;2024-03-22T04:38:21;9.60;;;4.40;;
84687;SDS011;74908;42.040;21.322;2024-03-22T04:40:47;11.25;;;4.80;;
84687;SDS011;74908;42.040;21.322;2024-03-22T04:43:14;6.28;;;3.65;;
84687;SDS011;74908;42.040;21.322;2024-03-22T04:45:42;14.65;;;5.75;;
84687;SDS011;74908;42.040;21.322;2024-03-22T04:48:09;6.82;;;3.03;;
84687;SDS011;74908;42.040;21.322;2024-03-22T04:50:35;9.75;;;4.72;;
84687;SDS011;74908;42.040;21.322;2024-03-22T04:53:01;9.13;;;4.10;;
84687;SDS011;74908;42.040;21.322;2024-03-22T04:55:28;8.98;;;4.00;;
84687;SDS011;74908;42.040;21.322;2024-03-22T04:57:54;8.43;;;4.30;;
84687;SDS011;74908;42.040;21.322;2024-03-22T05:00:20;10.98;;;4.28;;
84687;SDS011;74908;42.040;21.322;2024-03-22T05:02:46;6.88;;;4.22;;
84687;SDS011;74908;42.040;21.322;2024-03-22T05:05:13;8.88;;;4.45;;
84687;SDS011;74908;42.040;21.322;2024-03-22T05:07:47;7.75;;;3.80;;
84687;SDS011;74908;42.040;21.322;2024-03-22T05:10:13;10.57;;;4.13;;
84687;SDS011;74908;42.040;21.322;2024-03-22T05:12:42;10.60;;;4.20;;
84687;SDS011;74908;42.040;21.322;2024-03-22T05:15:08;8.65;;;5.18;;
84687;SDS011;74908;42.040;21.322;2024-03-22T05:17:35;9.57;;;5.07;;
84687;SDS011;74908;42.040;21.322;2024-03-22T05:20:01;9.02;;;5.25;;
84687;SDS011;74908;42.040;21.322;2024-03-22T05:22:28;9.23;;;4.65;;
84687;SDS011;74908;42.040;21.322;2024-03-22T05:24:55;9.27;;;4.45;;
84687;SDS011;74908;42.040;21.322;2024-03-22T05:27:21;10.02;;;4.40;;
84687;SDS011;74908;42.040;21.322;2024-03-22T05:29:48;8.98;;;4.68;;
84687;SDS011;74908;42.040;21.322;2024-03-22T05:32:14;14.10;;;6.38;;
84687;SDS011;74908;42.040;21.322;2024-03-22T05:34:41;12.57;;;6.55;;
84687;SDS011;74908;42.040;21.322;2024-03-22T05:37:07;15.55;;;6.72;;
84687;SDS011;74908;42.040;21.322;2024-03-22T05:39:35;13.75;;;6.65;;
84687;SDS011;74908;42.040;21.322;2024-03-22T05:42:01;11.88;;;6.03;;
84687;SDS011;74908;42.040;21.322;2024-03-22T05:44:27;15.07;;;7.57;;
84687;SDS011;74908;42.040;21.322;2024-03-22T05:46:54;12.35;;;5.68;;
84687;SDS011;74908;42.040;21.322;2024-03-22T05:49:21;12.75;;;7.45;;
84687;SDS011;74908;42.040;21.322;2024-03-22T05:51:47;16.27;;;5.88;;
84687;SDS011;74908;42.040;21.322;2024-03-22T05:54:14;9.65;;;5.32;;
84687;SDS011;74908;42.040;21.322;2024-03-22T05:56:40;11.02;;;5.50;;
84687;SDS011;74908;42.040;21.322;2024-03-22T05:59:06;12.18;;;5.85;;
84687;SDS011;74908;42.040;21.322;2024-03-22T06:01:32;8.00;;;4.80;;
84687;SDS011;74908;42.040;21.322;2024-03-22T06:03:58;8.98;;;4.68;;
84687;SDS011;74908;42.040;21.322;2024-03-22T06:06:25;11.80;;;5.38;;
84687;SDS011;74908;42.040;21.322;2024-03-22T06:08:51;10.50;;;5.78;;
84687;SDS011;74908;42.040;21.322;2024-03-22T06:11:19;13.98;;;5.50;;
84687;SDS011;74908;42.040;21.322;2024-03-22T06:13:46;11.07;;;4.30;;
84687;SDS011;74908;42.040;21.322;2024-03-22T06:16:12;10.48;;;4.68;;
84687;SDS011;74908;42.040;21.322;2024-03-22T06:18:38;21.38;;;10.50;;
84687;SDS011;74908;42.040;21.322;2024-03-22T06:21:05;24.70;;;11.35;;
84687;SDS011;74908;42.040;21.322;2024-03-22T06:23:31;11.43;;;6.43;;
84687;SDS011;74908;42.040;21.322;2024-03-22T06:25:58;19.95;;;9.20;;
84687;SDS011;74908;42.040;21.322;2024-03-22T06:28:26;14.55;;;7.72;;
84687;SDS011;74908;42.040;21.322;2024-03-22T06:30:52;17.10;;;8.27;;
84687;SDS011;74908;42.040;21.322;2024-03-22T06:33:19;23.92;;;10.32;;
84687;SDS011;74908;42.040;21.322;2024-03-22T06:35:45;20.60;;;8.50;;
84687;SDS011;74908;42.040;21.322;2024-03-22T06:38:12;16.20;;;8.23;;
84687;SDS011;74908;42.040;21.322;2024-03-22T06:40:38;17.13;;;7.90;;
84687;SDS011;74908;42.040;21.322;2024-03-22T06:43:04;12.38;;;6.85;;
84687;SDS011;74908;42.040;21.322;2024-03-22T06:45:30;19.80;;;9.38;;
84687;SDS011;74908;42.040;21.322;2024-03-22T06:47:56;16.63;;;7.85;;
84687;SDS011;74908;42.040;21.322;2024-03-22T06:50:22;20.73;;;9.18;;
84687;SDS011;74908;42.040;21.322;2024-03-22T06:52:51;15.00;;;7.82;;
84687;SDS011;74908;42.040;21.322;2024-03-22T06:55:18;18.85;;;8.98;;
84687;SDS011;74908;42.040;21.322;2024-03-22T06:57:47;18.67;;;9.23;;
84687;SDS011;74908;42.040;21.322;2024-03-22T07:00:13;19.25;;;9.02;;
84687;SDS011;74908;42.040;21.322;2024-03-22T07:02:40;17.67;;;9.45;;
84687;SDS011;74908;42.040;21.322;2024-03-22T07:05:07;20.98;;;10.25;;
84687;SDS011;74908;42.040;21.322;2024-03-22T07:07:36;25.73;;;9.95;;
84687;SDS011;74908;42.040;21.322;2024-03-22T07:10:03;19.65;;;9.57;;
84687;SDS011;74908;42.040;21.322;2024-03-22T07:12:31;20.73;;;8.95;;
84687;SDS011;74908;42.040;21.322;2024-03-22T07:14:59;18.63;;;9.80;;
84687;SDS011;74908;42.040;21.322;2024-03-22T07:17:25;15.82;;;8.77;;
84687;SDS011;74908;42.040;21.322;2024-03-22T07:19:51;20.20;;;8.65;;
84687;SDS011;74908;42.040;21.322;2024-03-22T07:22:18;15.77;;;7.82;;
84687;SDS011;74908;42.040;21.322;2024-03-22T07:24:44;15.77;;;8.20;;
84687;SDS011;74908;42.040;21.322;2024-03-22T07:27:11;17.00;;;8.90;;
84687;SDS011;74908;42.040;21.322;2024-03-22T07:29:37;14.55;;;7.57;;
84687;SDS011;74908;42.040;21.322;2024-03-22T07:32:04;19.55;;;8.38;;
84687;SDS011;74908;42.040;21.322;2024-03-22T07:34:31;18.08;;;8.55;;
84687;SDS011;74908;42.040;21.322;2024-03-22T07:36:57;26.80;;;13.95;;
84687;SDS011;74908;42.040;21.322;2024-03-22T07:39:23;18.52;;;10.23;;
84687;SDS011;74908;42.040;21.322;2024-03-22T07:41:49;19.83;;;11.25;;
84687;SDS011;74908;42.040;21.322;2024-03-22T07:44:16;19.33;;;9.80;;
84687;SDS011;74908;42.040;21.322;2024-03-22T07:46:45;19.20;;;9.98;;
84687;SDS011;74908;42.040;21.322;2024-03-22T07:49:12;21.80;;;9.23;;
84687;SDS011;74908;42.040;21.322;2024-03-22T07:51:38;18.92;;;10.35;;
84687;SDS011;74908;42.040;21.322;2024-03-22T07:54:04;14.60;;;8.43;;
84687;SDS011;74908;42.040;21.322;2024-03-22T07:56:31;13.23;;;8.35;;
84687;SDS011;74908;42.040;21.322;2024-03-22T07:58:57;17.05;;;8.48;;
84687;SDS011;74908;42.040;21.322;2024-03-22T08:01:23;18.55;;;9.30;;
84687;SDS011;74908;42.040;21.322;2024-03-22T08:03:51;16.48;;;9.18;;
84687;SDS011;74908;42.040;21.322;2024-03-22T08:06:17;19.55;;;8.07;;
84687;SDS011;74908;42.040;21.322;2024-03-22T08:08:44;18.05;;;8.88;;
84687;SDS011;74908;42.040;21.322;2024-03-22T08:11:10;19.50;;;8.82;;
84687;SDS011;74908;42.040;21.322;2024-03-22T08:13:36;12.38;;;7.03;;
84687;SDS011;74908;42.040;21.322;2024-03-22T08:16:03;12.30;;;6.78;;
84687;SDS011;74908;42.040;21.322;2024-03-22T08:18:30;13.15;;;6.80;;
84687;SDS011;74908;42.040;21.322;2024-03-22T08:20:58;14.82;;;7.60;;
84687;SDS011;74908;42.040;21.322;2024-03-22T08:23:24;14.60;;;7.68;;
84687;SDS011;74908;42.040;21.322;2024-03-22T08:25:51;14.75;;;7.47;;
84687;SDS011;74908;42.040;21.322;2024-03-22T08:28:17;12.77;;;7.45;;
84687;SDS011;74908;42.040;21.322;2024-03-22T08:30:43;12.85;;;7.18;;
84687;SDS011;74908;42.040;21.322;2024-03-22T08:33:09;13.23;;;7.13;;
84687;SDS011;74908;42.040;21.322;2024-03-22T08:35:39;15.60;;;6.88;;
84687;SDS011;74908;42.040;21.322;2024-03-22T08:38:05;10.38;;;6.95;;
84687;SDS011;74908;42.040;21.322;2024-03-22T08:40:38;13.32;;;7.07;;
84687;SDS011;74908;42.040;21.322;2024-03-22T08:43:05;13.80;;;7.47;;
84687;SDS011;74908;42.040;21.322;2024-03-22T08:45:34;14.05;;;6.82;;
84687;SDS011;74908;42.040;21.322;2024-03-22T08:48:01;13.55;;;7.10;;
84687;SDS011;74908;42.040;21.322;2024-03-22T08:50:28;10.90;;;6.75;;
84687;SDS011;74908;42.040;21.322;2024-03-22T08:52:54;13.48;;;7.75;;
84687;SDS011;74908;42.040;21.322;2024-03-22T08:55:20;16.00;;;7.95;;
84687;SDS011;74908;42.040;21.322;2024-03-22T08:57:46;13.60;;;7.07;;
84687;SDS011;74908;42.040;21.322;2024-03-22T09:00:13;16.00;;;7.50;;
84687;SDS011;74908;42.040;21.322;2024-03-22T09:02:39;15.05;;;6.43;;
84687;SDS011;74908;42.040;21.322;2024-03-22T09:05:05;13.80;;;7.45;;
84687;SDS011;74908;42.040;21.322;2024-03-22T09:07:33;12.15;;;6.50;;
84687;SDS011;74908;42.040;21.322;2024-03-22T09:09:59;16.58;;;8.30;;
84687;SDS011;74908;42.040;21.322;2024-03-22T09:12:25;17.13;;;7.70;;
84687;SDS011;74908;42.040;21.322;2024-03-22T09:14:52;13.73;;;7.22;;
84687;SDS011;74908;42.040;21.322;2024-03-22T09:17:18;19.05;;;8.93;;
84687;SDS011;74908;42.040;21.322;2024-03-22T09:19:44;12.45;;;6.50;;
84687;SDS011;74908;42.040;21.322;2024-03-22T09:22:10;14.73;;;6.80;;
84687;SDS011;74908;42.040;21.322;2024-03-22T09:24:37;13.15;;;6.93;;
84687;SDS011;74908;42.040;21.322;2024-03-22T09:27:03;17.05;;;7.68;;
84687;SDS011;74908;42.040;21.322;2024-03-22T09:29:34;13.45;;;6.57;;
84687;SDS011;74908;42.040;21.322;2024-03-22T09:32:00;17.75;;;6.97;;
84687;SDS011;74908;42.040;21.322;2024-03-22T09:34:27;12.27;;;5.65;;
84687;SDS011;74908;42.040;21.322;2024-03-22T09:36:55;14.68;;;6.95;;
84687;SDS011;74908;42.040;21.322;2024-03-22T09:39:21;14.77;;;6.28;;
84687;SDS011;74908;42.040;21.322;2024-03-22T09:41:47;10.68;;;5.63;;
84687;SDS011;74908;42.040;21.322;2024-03-22T09:44:17;11.98;;;5.97;;
84687;SDS011;74908;42.040;21.322;2024-03-22T09:46:46;11.70;;;6.53;;
84687;SDS011;74908;42.040;21.322;2024-03-22T09:49:13;10.57;;;6.22;;
84687;SDS011;74908;42.040;21.322;2024-03-22T09:51:39;12.25;;;6.50;;
84687;SDS011;74908;42.040;21.322;2024-03-22T09:54:08;13.50;;;6.32;;
84687;SDS011;74908;42.040;21.322;2024-03-22T09:56:35;10.70;;;5.95;;
84687;SDS011;74908;42.040;21.322;2024-03-22T09:59:01;12.38;;;6.50;;
84687;SDS011;74908;42.040;21.322;2024-03-22T10:01:28;11.35;;;6.50;;
84687;SDS011;74908;42.040;21.322;2024-03-22T10:03:55;10.05;;;5.75;;
84687;SDS011;74908;42.040;21.322;2024-03-22T10:06:21;12.70;;;6.68;;
84687;SDS011;74908;42.040;21.322;2024-03-22T10:08:47;10.00;;;6.38;;
84687;SDS011;74908;42.040;21.322;2024-03-22T10:11:14;11.68;;;5.80;;
84687;SDS011;74908;42.040;21.322;2024-03-22T10:13:40;10.52;;;6.05;;
84687;SDS011;74908;42.040;21.322;2024-03-22T10:16:06;12.60;;;6.20;;
84687;SDS011;74908;42.040;21.322;2024-03-22T10:18:33;9.95;;;5.68;;
84687;SDS011;74908;42.040;21.322;2024-03-22T10:21:00;10.45;;;5.45;;
84687;SDS011;74908;42.040;21.322;2024-03-22T10:23:26;10.38;;;6.13;;
84687;SDS011;74908;42.040;21.322;2024-03-22T10:25:53;10.02;;;5.82;;
84687;SDS011;74908;42.040;21.322;2024-03-22T10:28:19;12.73;;;6.63;;
84687;SDS011;74908;42.040;21.322;2024-03-22T10:30:47;8.93;;;4.60;;
84687;SDS011;74908;42.040;21.322;2024-03-22T10:33:15;10.80;;;5.50;;
84687;SDS011;74908;42.040;21.322;2024-03-22T10:35:41;8.27;;;5.07;;
84687;SDS011;74908;42.040;21.322;2024-03-22T10:38:09;10.15;;;4.85;;
84687;SDS011;74908;42.040;21.322;2024-03-22T10:40:36;9.50;;;4.85;;
84687;SDS011;74908;42.040;21.322;2024-03-22T10:43:02;8.38;;;4.38;;
84687;SDS011;74908;42.040;21.322;2024-03-22T10:45:29;9.07;;;4.28;;
84687;SDS011;74908;42.040;21.322;2024-03-22T10:47:55;7.53;;;4.45;;
84687;SDS011;74908;42.040;21.322;2024-03-22T10:50:21;8.73;;;4.18;;
84687;SDS011;74908;42.040;21.322;2024-03-22T10:53:01;6.97;;;4.88;;
84687;SDS011;74908;42.040;21.322;2024-03-22T10:55:30;10.15;;;4.78;;
84687;SDS011;74908;42.040;21.322;2024-03-22T10:57:58;9.20;;;4.82;;
84687;SDS011;74908;42.040;21.322;2024-03-22T11:00:31;9.90;;;5.22;;
84687;SDS011;74908;42.040;21.322;2024-03-22T11:02:58;13.52;;;5.38;;
84687;SDS011;74908;42.040;21.322;2024-03-22T11:05:25;10.25;;;5.30;;
84687;SDS011;74908;42.040;21.322;2024-03-22T11:07:58;6.97;;;4.45;;
84687;SDS011;74908;42.040;21.322;2024-03-22T11:10:33;11.05;;;5.13;;
84687;SDS011;74908;42.040;21.322;2024-03-22T11:13:03;12.88;;;5.32;;
84687;SDS011;74908;42.040;21.322;2024-03-22T11:15:29;10.77;;;4.72;;
84687;SDS011;74908;42.040;21.322;2024-03-22T11:17:56;8.52;;;5.03;;
84687;SDS011;74908;42.040;21.322;2024-03-22T11:20:22;10.07;;;5.25;;
84687;SDS011;74908;42.040;21.322;2024-03-22T11:22:49;9.43;;;5.35;;
84687;SDS011;74908;42.040;21.322;2024-03-22T11:25:15;9.02;;;5.18;;
84687;SDS011;74908;42.040;21.322;2024-03-22T11:27:41;10.07;;;4.85;;
84687;SDS011;74908;42.040;21.322;2024-03-22T11:30:07;10.05;;;5.88;;
84687;SDS011;74908;42.040;21.322;2024-03-22T11:32:34;11.18;;;5.55;;
84687;SDS011;74908;42.040;21.322;2024-03-22T11:35:07;13.13;;;6.50;;
84687;SDS011;74908;42.040;21.322;2024-03-22T11:37:34;10.13;;;5.05;;
84687;SDS011;74908;42.040;21.322;2024-03-22T11:40:00;10.32;;;5.85;;
84687;SDS011;74908;42.040;21.322;2024-03-22T11:44:56;11.00;;;5.57;;
84687;SDS011;74908;42.040;21.322;2024-03-22T11:47:23;8.38;;;5.03;;
84687;SDS011;74908;42.040;21.322;2024-03-22T11:49:50;9.60;;;5.00;;
84687;SDS011;74908;42.040;21.322;2024-03-22T11:52:16;9.70;;;5.60;;
84687;SDS011;74908;42.040;21.322;2024-03-22T11:54:42;11.15;;;5.90;;
84687;SDS011;74908;42.040;21.322;2024-03-22T11:57:08;10.90;;;5.10;;
84687;SDS011;74908;42.040;21.322;2024-03-22T11:59:35;8.18;;;5.13;;
84687;SDS011;74908;42.040;21.322;2024-03-22T12:02:01;10.05;;;6.22;;
84687;SDS011;74908;42.040;21.322;2024-03-22T12:04:27;8.50;;;5.53;;
84687;SDS011;74908;42.040;21.322;2024-03-22T12:06:53;9.25;;;5.65;;
84687;SDS011;74908;42.040;21.322;2024-03-22T12:09:22;8.88;;;5.13;;
84687;SDS011;74908;42.040;21.322;2024-03-22T12:11:49;11.77;;;5.28;;
84687;SDS011;74908;42.040;21.322;2024-03-22T12:14:15;9.65;;;5.07;;
84687;SDS011;74908;42.040;21.322;2024-03-22T12:16:42;12.00;;;5.75;;
84687;SDS011;74908;42.040;21.322;2024-03-22T12:19:08;9.18;;;4.85;;
84687;SDS011;74908;42.040;21.322;2024-03-22T12:21:34;7.20;;;4.93;;
84687;SDS011;74908;42.040;21.322;2024-03-22T12:24:00;9.88;;;5.30;;
84687;SDS011;74908;42.040;21.322;2024-03-22T12:26:26;6.60;;;4.32;;
84687;SDS011;74908;42.040;21.322;2024-03-22T12:28:52;6.78;;;4.80;;
84687;SDS011;74908;42.040;21.322;2024-03-22T12:31:19;9.90;;;4.97;;
84687;SDS011;74908;42.040;21.322;2024-03-22T12:33:45;9.13;;;4.97;;
84687;SDS011;74908;42.040;21.322;2024-03-22T12:36:11;9.50;;;5.13;;
84687;SDS011;74908;42.040;21.322;2024-03-22T12:38:37;8.13;;;5.13;;
84687;SDS011;74908;42.040;21.322;2024-03-22T12:41:03;8.27;;;4.90;;
84687;SDS011;74908;42.040;21.322;2024-03-22T12:43:31;8.15;;;4.60;;
84687;SDS011;74908;42.040;21.322;2024-03-22T12:45:57;8.70;;;4.90;;
84687;SDS011;74908;42.040;21.322;2024-03-22T12:48:24;8.18;;;4.95;;
84687;SDS011;74908;42.040;21.322;2024-03-22T12:50:50;8.13;;;4.97;;
84687;SDS011;74908;42.040;21.322;2024-03-22T12:53:16;7.82;;;4.22;;
84687;SDS011;74908;42.040;21.322;2024-03-22T12:55:42;7.82;;;4.35;;
84687;SDS011;74908;42.040;21.322;2024-03-22T12:58:08;8.25;;;4.32;;
84687;SDS011;74908;42.040;21.322;2024-03-22T13:00:34;11.68;;;5.45;;
84687;SDS011;74908;42.040;21.322;2024-03-22T13:03:01;9.30;;;5.00;;
84687;SDS011;74908;42.040;21.322;2024-03-22T13:05:27;8.93;;;4.82;;
84687;SDS011;74908;42.040;21.322;2024-03-22T13:07:53;7.93;;;4.70;;
84687;SDS011;74908;42.040;21.322;2024-03-22T13:10:20;7.50;;;4.60;;
84687;SDS011;74908;42.040;21.322;2024-03-22T13:12:46;8.00;;;4.40;;
84687;SDS011;74908;42.040;21.322;2024-03-22T13:15:12;7.13;;;3.97;;
84687;SDS011;74908;42.040;21.322;2024-03-22T13:17:40;8.90;;;3.65;;
84687;SDS011;74908;42.040;21.322;2024-03-22T13:20:06;5.70;;;4.07;;
84687;SDS011;74908;42.040;21.322;2024-03-22T13:22:36;7.95;;;3.92;;
84687;SDS011;74908;42.040;21.322;2024-03-22T13:25:03;8.75;;;4.38;;
84687;SDS011;74908;42.040;21.322;2024-03-22T13:27:32;8.77;;;4.47;;
84687;SDS011;74908;42.040;21.322;2024-03-22T13:29:59;8.85;;;4.32;;
84687;SDS011;74908;42.040;21.322;2024-03-22T13:32:25;9.35;;;4.07;;
84687;SDS011;74908;42.040;21.322;2024-03-22T13:34:52;8.00;;;4.15;;
84687;SDS011;74908;42.040;21.322;2024-03-22T13:37:18;7.13;;;3.85;;
84687;SDS011;74908;42.040;21.322;2024-03-22T13:39:48;8.65;;;4.05;;
84687;SDS011;74908;42.040;21.322;2024-03-22T13:42:15;7.05;;;3.92;;
84687;SDS011;74908;42.040;21.322;2024-03-22T13:44:41;6.72;;;4.35;;
84687;SDS011;74908;42.040;21.322;2024-03-22T13:47:07;6.78;;;3.97;;
84687;SDS011;74908;42.040;21.322;2024-03-22T13:49:34;9.70;;;4.38;;
84687;SDS011;74908;42.040;21.322;2024-03-22T13:52:00;7.38;;;4.00;;
84687;SDS011;74908;42.040;21.322;2024-03-22T13:54:27;6.07;;;3.58;;
84687;SDS011;74908;42.040;21.322;2024-03-22T13:56:53;7.20;;;3.83;;
84687;SDS011;74908;42.040;21.322;2024-03-22T13:59:19;6.63;;;3.53;;
84687;SDS011;74908;42.040;21.322;2024-03-22T14:01:45;8.10;;;3.53;;
84687;SDS011;74908;42.040;21.322;2024-03-22T14:04:12;7.45;;;4.30;;
84687;SDS011;74908;42.040;21.322;2024-03-22T14:06:40;7.90;;;4.15;;
84687;SDS011;74908;42.040;21.322;2024-03-22T14:09:09;10.40;;;4.20;;
84687;SDS011;74908;42.040;21.322;2024-03-22T14:11:41;5.47;;;3.72;;
84687;SDS011;74908;42.040;21.322;2024-03-22T14:14:11;8.20;;;4.22;;
84687;SDS011;74908;42.040;21.322;2024-03-22T14:16:37;7.13;;;4.15;;
84687;SDS011;74908;42.040;21.322;2024-03-22T14:19:04;4.85;;;3.58;;
84687;SDS011;74908;42.040;21.322;2024-03-22T14:21:30;6.32;;;4.60;;
84687;SDS011;74908;42.040;21.322;2024-03-22T14:23:56;7.15;;;4.28;;
84687;SDS011;74908;42.040;21.322;2024-03-22T14:26:22;5.97;;;3.90;;
84687;SDS011;74908;42.040;21.322;2024-03-22T14:28:48;7.15;;;4.20;;